עמוד ראשי
METAR-TAF:

METAR-TAF

שדות תעופה :

Shahrekord, איראן

קו רוחב: 32-20N, קו אורך: 050-51E, גובה: 2078מטר

תצפית מזג אוויר נוכחית

הדו"ח נערך לפני 37דקות, בשעה 20:00 UTC
רוח 6קשר מכיוון מערב/צפון-מערב
טמפרטורת 17 צלסיוס
לחות 36%
לחץ 1019 hPa
ראות 10 קילומטר או יותר
ללא עננים שבסיסם נמוך מ 5000 רגל או קומולונימבוס

METAR: OIFS 132000Z 30006KT CAVOK 17/02 Q1019

זמן: 01:07 (20:37 UTC)


TAF: חסר

תצפיות ותחזיות מזג אוויר לגבי יותר מ- 4,000 שדות תעופה ברחבי העולם. דוחות METAR ו- TAF.

התחנות הזמינות מסומנות בנקודות צהובות ואדומות על גבי המפה.

העבר את העכבר לנקודה הצבעונית על מנת לראות את שם התחנה.

לאחר מכן, לחץ כדי לראות את תוכן ואת תחזיות מזג האוויר.

כדי לשנות את המפה: לחץ על הכפתורים הירוקים עם הפלוס השחור כדי להתקרב; על הכפתור הירוק עם המקף כדי להתרחק; או בחיצים הירוקים למפות סמוכות.


METAR-TAF: